createdAt,value
2017-12-06T00:00:40.317Z,7.35
2017-12-06T00:03:08.051Z,7.32
2017-12-06T00:05:35.669Z,7.29
2017-12-06T00:08:03.394Z,7.29
2017-12-06T00:10:31.036Z,7.30
2017-12-06T00:13:04.380Z,7.28
2017-12-06T00:15:37.633Z,7.27
2017-12-06T00:18:05.313Z,7.25
2017-12-06T00:20:33.024Z,7.27
2017-12-06T00:23:00.741Z,7.24
2017-12-06T00:25:28.460Z,7.24
2017-12-06T00:27:56.250Z,7.23
2017-12-06T00:30:23.884Z,7.21
2017-12-06T00:32:51.584Z,7.19
2017-12-06T00:35:19.208Z,7.18
2017-12-06T00:37:46.934Z,7.20
2017-12-06T00:40:14.641Z,7.19
2017-12-06T00:42:42.303Z,7.21
2017-12-06T00:45:09.919Z,7.25
2017-12-06T00:47:37.678Z,7.27
2017-12-06T00:50:05.365Z,7.31
2017-12-06T00:52:33.101Z,7.33
2017-12-06T00:55:00.800Z,7.27
2017-12-06T00:57:28.537Z,7.24
2017-12-06T00:59:56.223Z,7.23
2017-12-06T01:02:23.965Z,7.25
2017-12-06T01:04:51.651Z,7.23
2017-12-06T01:07:19.345Z,7.23
2017-12-06T01:09:47.072Z,7.20
2017-12-06T01:12:14.791Z,7.23
2017-12-06T01:14:42.541Z,7.22
2017-12-06T01:17:10.155Z,7.24
2017-12-06T01:19:37.932Z,7.22
2017-12-06T01:22:05.637Z,7.24
2017-12-06T01:24:33.322Z,7.21
2017-12-06T01:27:00.993Z,7.21
2017-12-06T01:29:28.733Z,7.22
2017-12-06T01:31:56.355Z,7.27
2017-12-06T01:34:24.145Z,7.25
2017-12-06T01:36:51.898Z,7.27
2017-12-06T01:39:19.607Z,7.28
2017-12-06T01:41:47.286Z,7.29
2017-12-06T01:44:15.041Z,7.28
2017-12-06T01:46:42.665Z,7.26
2017-12-06T01:49:10.395Z,7.31
2017-12-06T01:51:38.082Z,7.29
2017-12-06T01:54:05.761Z,7.30
2017-12-06T01:56:33.465Z,7.36
2017-12-06T01:59:01.195Z,7.33
2017-12-06T02:01:28.815Z,7.31
2017-12-06T02:03:56.548Z,7.35
2017-12-06T02:06:24.286Z,7.36
2017-12-06T02:08:52.035Z,7.33
2017-12-06T02:11:19.705Z,7.32
2017-12-06T02:13:47.366Z,7.32
2017-12-06T02:16:15.068Z,7.36
2017-12-06T02:18:42.798Z,7.33
2017-12-06T02:21:10.483Z,7.31
2017-12-06T02:23:38.172Z,7.30
2017-12-06T02:26:06.393Z,7.34
2017-12-06T02:28:34.134Z,7.31
2017-12-06T02:31:01.836Z,7.31
2017-12-06T02:33:29.661Z,7.28
2017-12-06T02:35:57.349Z,7.28
2017-12-06T02:38:25.054Z,7.26
2017-12-06T02:41:04.503Z,7.28
2017-12-06T02:43:43.952Z,7.27
2017-12-06T02:46:11.652Z,7.25
2017-12-06T02:48:39.382Z,7.27
2017-12-06T02:51:07.093Z,7.29
2017-12-06T02:53:34.806Z,7.26
2017-12-06T02:56:02.541Z,7.30
2017-12-06T02:58:30.242Z,7.32
2017-12-06T03:00:57.973Z,7.30
2017-12-06T03:03:25.657Z,7.28
2017-12-06T03:05:53.408Z,7.28
2017-12-06T03:08:21.097Z,7.24
2017-12-06T03:10:48.767Z,7.21
2017-12-06T03:13:16.483Z,7.22
2017-12-06T03:15:44.166Z,7.23
2017-12-06T03:18:11.856Z,7.21
2017-12-06T03:20:39.573Z,7.27
2017-12-06T03:23:07.265Z,7.28
2017-12-06T03:25:35.010Z,7.24
2017-12-06T03:28:02.732Z,7.26
2017-12-06T03:30:30.480Z,7.26
2017-12-06T03:32:58.225Z,7.26
2017-12-06T03:35:25.960Z,7.27
2017-12-06T03:37:53.640Z,7.24
2017-12-06T03:40:21.398Z,7.22
2017-12-06T03:42:49.177Z,7.23
2017-12-06T03:45:16.928Z,7.20
2017-12-06T03:47:44.641Z,7.22
2017-12-06T03:50:12.327Z,7.28
2017-12-06T03:52:40.087Z,7.28
2017-12-06T03:55:07.784Z,7.24
2017-12-06T03:57:35.507Z,7.21
2017-12-06T04:00:03.193Z,7.23
2017-12-06T04:02:30.936Z,7.23
2017-12-06T04:04:58.611Z,7.22
2017-12-06T04:07:26.380Z,7.22
2017-12-06T04:09:54.064Z,7.25
2017-12-06T04:12:21.792Z,7.26
2017-12-06T04:14:49.507Z,7.21
2017-12-06T04:17:17.260Z,7.21
2017-12-06T04:19:44.944Z,7.22
2017-12-06T04:22:12.691Z,7.21
2017-12-06T04:24:40.392Z,7.20
2017-12-06T04:27:08.126Z,7.25
2017-12-06T04:29:35.841Z,7.27
2017-12-06T04:32:03.627Z,7.25
2017-12-06T04:34:31.375Z,7.22
2017-12-06T04:36:59.073Z,7.24
2017-12-06T04:39:26.840Z,7.24
2017-12-06T04:41:54.537Z,7.25
2017-12-06T04:44:22.309Z,7.24
2017-12-06T04:46:50.005Z,7.25
2017-12-06T04:49:17.747Z,7.25
2017-12-06T04:51:45.463Z,7.27
2017-12-06T04:54:13.218Z,7.24
2017-12-06T04:56:40.932Z,7.25
2017-12-06T04:59:08.685Z,7.24
2017-12-06T05:01:36.399Z,7.26
2017-12-06T05:04:04.233Z,7.22
2017-12-06T05:06:31.937Z,7.22
2017-12-06T05:08:59.689Z,7.22
2017-12-06T05:11:27.387Z,7.25
2017-12-06T05:13:55.129Z,7.29
2017-12-06T05:16:22.759Z,7.25
2017-12-06T05:18:50.478Z,7.26
2017-12-06T05:21:18.180Z,7.26
2017-12-06T05:23:45.916Z,7.26
2017-12-06T05:26:13.630Z,7.28
2017-12-06T05:28:41.409Z,7.31
2017-12-06T05:31:09.041Z,7.31
2017-12-06T05:33:36.848Z,7.29
2017-12-06T05:36:04.544Z,7.29
2017-12-06T05:38:32.259Z,7.30
2017-12-06T05:40:59.950Z,7.32
2017-12-06T05:43:27.709Z,7.32
2017-12-06T05:45:55.435Z,7.31
2017-12-06T05:48:23.226Z,7.30
2017-12-06T05:50:50.935Z,7.30
2017-12-06T05:53:19.712Z,7.30
2017-12-06T05:55:47.334Z,7.30
2017-12-06T05:58:15.031Z,7.30
2017-12-06T06:00:42.709Z,7.29
2017-12-06T06:03:10.353Z,7.29
2017-12-06T06:05:38.024Z,7.33
2017-12-06T06:08:05.670Z,7.30
2017-12-06T06:10:33.375Z,7.28
2017-12-06T06:13:01.029Z,7.27
2017-12-06T06:15:28.704Z,7.23
2017-12-06T06:17:56.330Z,7.21
2017-12-06T06:20:24.007Z,7.25
2017-12-06T06:22:51.708Z,7.26
2017-12-06T06:25:19.463Z,7.28
2017-12-06T06:27:47.170Z,7.28
2017-12-06T06:30:14.901Z,7.25
2017-12-06T06:32:42.633Z,7.27
2017-12-06T06:35:10.373Z,7.31
2017-12-06T06:37:38.071Z,7.25
2017-12-06T06:40:05.747Z,7.23
2017-12-06T06:42:33.432Z,7.21
2017-12-06T06:45:01.216Z,7.24
2017-12-06T06:47:28.928Z,7.28
2017-12-06T06:49:56.687Z,7.29
2017-12-06T06:52:24.364Z,7.33
2017-12-06T06:54:52.102Z,7.32
2017-12-06T06:57:19.752Z,7.27
2017-12-06T06:59:47.470Z,7.29
2017-12-06T07:02:15.170Z,7.29
2017-12-06T07:04:42.909Z,7.35
2017-12-06T07:07:10.536Z,7.31
2017-12-06T07:09:38.288Z,7.31
2017-12-06T07:12:05.981Z,7.29
2017-12-06T07:14:33.734Z,7.31
2017-12-06T07:17:01.429Z,7.34
2017-12-06T07:19:29.214Z,7.32
2017-12-06T07:21:56.913Z,7.36
2017-12-06T07:24:24.664Z,7.34
2017-12-06T07:26:52.348Z,7.35
2017-12-06T07:29:20.020Z,7.39
2017-12-06T07:31:47.709Z,7.40
2017-12-06T07:34:15.390Z,7.39
2017-12-06T07:36:43.062Z,7.42
2017-12-06T07:39:10.740Z,7.44
2017-12-06T07:41:38.364Z,7.45
2017-12-06T07:44:06.062Z,7.44
2017-12-06T07:46:33.743Z,7.39
2017-12-06T07:49:01.392Z,7.37
2017-12-06T07:51:29.131Z,7.40
2017-12-06T07:53:56.865Z,7.35
2017-12-06T07:56:24.595Z,7.33
2017-12-06T07:58:52.331Z,7.39
2017-12-06T08:01:19.988Z,7.37
2017-12-06T08:03:47.635Z,7.36
2017-12-06T08:06:15.335Z,7.37
2017-12-06T08:08:42.964Z,7.40
2017-12-06T08:11:10.638Z,7.38
2017-12-06T08:13:38.305Z,7.37
2017-12-06T08:16:06.006Z,7.39
2017-12-06T08:18:33.694Z,7.40
2017-12-06T08:21:01.458Z,7.41
2017-12-06T08:23:29.158Z,7.38
2017-12-06T08:25:56.911Z,7.40
2017-12-06T08:28:24.592Z,7.39
2017-12-06T08:30:52.325Z,7.39
2017-12-06T08:33:20.084Z,7.42
2017-12-06T08:35:47.824Z,7.50
2017-12-06T08:38:15.523Z,7.51
2017-12-06T08:40:43.269Z,7.58
2017-12-06T08:43:10.969Z,7.61
2017-12-06T08:45:38.662Z,7.63
2017-12-06T08:48:06.372Z,7.62
2017-12-06T08:50:34.104Z,7.66
2017-12-06T08:53:01.811Z,7.68
2017-12-06T08:55:29.542Z,7.75
2017-12-06T08:57:57.236Z,7.83
2017-12-06T09:00:25.018Z,7.87
2017-12-06T09:02:52.721Z,7.87
2017-12-06T09:05:20.462Z,7.94
2017-12-06T09:07:48.152Z,7.98
2017-12-06T09:10:15.915Z,7.97
2017-12-06T09:12:43.562Z,7.92
2017-12-06T09:15:11.306Z,7.86
2017-12-06T09:17:39.032Z,7.83
2017-12-06T09:20:06.792Z,7.83
2017-12-06T09:22:34.493Z,7.80
2017-12-06T09:25:02.244Z,7.76
2017-12-06T09:27:29.954Z,7.78
2017-12-06T09:29:57.704Z,7.78
2017-12-06T09:32:25.417Z,7.78
2017-12-06T09:34:53.248Z,7.80
2017-12-06T09:37:20.927Z,7.80
2017-12-06T09:39:48.689Z,7.80
2017-12-06T09:42:16.372Z,7.77
2017-12-06T09:44:44.057Z,7.78
2017-12-06T09:47:11.793Z,7.79
2017-12-06T09:49:39.485Z,7.82
2017-12-06T09:52:07.208Z,7.83
2017-12-06T09:54:34.894Z,7.83
2017-12-06T09:57:02.642Z,7.88
2017-12-06T09:59:30.356Z,7.90
2017-12-06T10:01:58.056Z,7.90
2017-12-06T10:04:25.805Z,7.90
2017-12-06T10:06:53.501Z,7.94
2017-12-06T10:09:21.256Z,7.95
2017-12-06T10:11:48.952Z,7.95
2017-12-06T10:14:16.708Z,7.97
2017-12-06T10:16:44.419Z,8.08
2017-12-06T10:19:12.157Z,8.10
2017-12-06T10:21:39.842Z,8.20
2017-12-06T10:24:07.573Z,8.17
2017-12-06T10:26:35.272Z,8.19
2017-12-06T10:29:03.020Z,8.19
2017-12-06T10:31:30.713Z,8.27
2017-12-06T10:33:58.506Z,8.36
2017-12-06T10:36:26.206Z,8.39
2017-12-06T10:38:53.960Z,8.41
2017-12-06T10:41:21.654Z,8.44
2017-12-06T10:43:49.351Z,8.49
2017-12-06T10:46:17.089Z,8.47
2017-12-06T10:48:44.840Z,8.46
2017-12-06T10:51:12.564Z,8.39
2017-12-06T10:53:40.262Z,8.40
2017-12-06T10:56:08.026Z,8.37
2017-12-06T10:58:35.771Z,8.42
2017-12-06T11:01:03.531Z,8.43
2017-12-06T11:03:31.240Z,8.44
2017-12-06T11:05:59.027Z,8.42
2017-12-06T11:08:26.722Z,8.43
2017-12-06T11:10:54.461Z,8.41
2017-12-06T11:13:22.101Z,8.38
2017-12-06T11:15:49.862Z,8.33
2017-12-06T11:18:17.589Z,8.25
2017-12-06T11:20:45.328Z,8.25
2017-12-06T11:23:13.019Z,8.25
2017-12-06T11:25:40.766Z,8.30
2017-12-06T11:28:08.459Z,8.34
2017-12-06T11:30:36.219Z,8.32
2017-12-06T11:33:03.940Z,8.31
2017-12-06T11:35:31.677Z,8.30
2017-12-06T11:37:59.415Z,8.31
2017-12-06T11:40:27.113Z,8.34
2017-12-06T11:42:54.841Z,8.27
2017-12-06T11:45:22.538Z,8.24
2017-12-06T11:47:50.202Z,8.24
2017-12-06T11:50:17.940Z,8.22
2017-12-06T11:52:45.665Z,8.23
2017-12-06T11:55:13.399Z,8.20
2017-12-06T11:57:41.157Z,8.22
2017-12-06T12:00:08.963Z,8.21
2017-12-06T12:02:36.711Z,8.23
2017-12-06T12:05:04.402Z,8.22
2017-12-06T12:07:32.195Z,8.25
2017-12-06T12:09:59.832Z,8.24
2017-12-06T12:12:27.515Z,8.25
2017-12-06T12:14:55.136Z,8.30
2017-12-06T12:17:22.816Z,8.32
2017-12-06T12:19:50.440Z,8.29
2017-12-06T12:22:18.152Z,8.30
2017-12-06T12:24:45.768Z,8.34
2017-12-06T12:27:13.424Z,8.33
2017-12-06T12:29:41.053Z,8.39
2017-12-06T12:32:08.727Z,8.35
2017-12-06T12:34:36.398Z,8.39
2017-12-06T12:37:04.083Z,8.33
2017-12-06T12:39:31.716Z,8.37
2017-12-06T12:41:59.405Z,8.34
2017-12-06T12:44:27.034Z,8.35
2017-12-06T12:46:54.842Z,8.37
2017-12-06T12:49:22.487Z,8.41
2017-12-06T12:51:50.194Z,8.41
2017-12-06T12:54:17.872Z,8.41
2017-12-06T12:56:45.579Z,8.44
2017-12-06T12:59:13.222Z,8.47
2017-12-06T13:01:40.929Z,8.49
2017-12-06T13:04:08.549Z,8.48
2017-12-06T13:06:36.341Z,8.48
2017-12-06T13:09:04.041Z,8.50
2017-12-06T13:11:31.845Z,8.53
2017-12-06T13:13:59.557Z,8.48
2017-12-06T13:16:27.251Z,8.52
2017-12-06T13:18:55.629Z,8.43
2017-12-06T13:21:23.421Z,8.44
2017-12-06T13:23:51.134Z,8.42
2017-12-06T13:26:18.869Z,8.32
2017-12-06T13:28:46.607Z,8.31
2017-12-06T13:31:14.326Z,8.31
2017-12-06T13:33:42.062Z,8.32
2017-12-06T13:36:09.767Z,8.30
2017-12-06T13:38:37.509Z,8.20
2017-12-06T13:41:05.135Z,8.19
2017-12-06T13:43:32.802Z,8.19
2017-12-06T13:46:00.511Z,8.17
2017-12-06T13:48:28.220Z,8.11
2017-12-06T13:50:55.864Z,8.12
2017-12-06T13:53:23.615Z,8.11
2017-12-06T13:55:51.315Z,8.09
2017-12-06T13:58:19.066Z,8.05
2017-12-06T14:00:46.828Z,8.03
2017-12-06T14:03:14.517Z,8.04
2017-12-06T14:05:42.240Z,8.05
2017-12-06T14:08:10.034Z,8.06
2017-12-06T14:10:37.740Z,8.08
2017-12-06T14:13:05.487Z,8.10
2017-12-06T14:15:33.176Z,8.07
2017-12-06T14:18:00.929Z,8.08
2017-12-06T14:20:28.658Z,8.10
2017-12-06T14:22:56.430Z,8.04
2017-12-06T14:25:24.163Z,8.01
2017-12-06T14:27:51.947Z,8.00
2017-12-06T14:30:19.656Z,7.98
2017-12-06T14:32:47.405Z,7.98
2017-12-06T14:35:15.112Z,8.00
2017-12-06T14:37:42.861Z,7.99
2017-12-06T14:40:10.564Z,7.98
2017-12-06T14:42:38.257Z,7.96
2017-12-06T14:45:05.884Z,7.94
2017-12-06T14:47:33.620Z,8.01
2017-12-06T14:50:01.386Z,8.04
2017-12-06T14:52:29.125Z,8.03
2017-12-06T14:54:56.869Z,8.03
2017-12-06T14:57:24.563Z,8.01
2017-12-06T14:59:52.255Z,8.03
2017-12-06T15:02:19.934Z,8.06
2017-12-06T15:04:47.620Z,8.07
2017-12-06T15:07:15.352Z,8.05
2017-12-06T15:09:43.040Z,8.08
2017-12-06T15:12:10.806Z,8.10
2017-12-06T15:14:38.506Z,8.11
2017-12-06T15:17:06.151Z,8.10
2017-12-06T15:19:33.816Z,8.06
2017-12-06T15:22:01.446Z,8.06
2017-12-06T15:24:29.113Z,8.07
2017-12-06T15:26:56.741Z,8.09
2017-12-06T15:29:24.450Z,8.08
2017-12-06T15:31:52.093Z,8.09
2017-12-06T15:34:19.840Z,8.05
2017-12-06T15:36:47.476Z,8.06
2017-12-06T15:39:15.152Z,8.04
2017-12-06T15:41:42.790Z,8.06
2017-12-06T15:44:10.481Z,8.08
2017-12-06T15:46:38.109Z,8.05
2017-12-06T15:49:05.794Z,8.05
2017-12-06T15:51:33.535Z,8.07
2017-12-06T15:54:01.280Z,8.08
2017-12-06T15:56:28.989Z,8.11
2017-12-06T15:58:56.801Z,8.17
2017-12-06T16:01:24.519Z,8.17
2017-12-06T16:03:52.311Z,8.14
2017-12-06T16:06:19.996Z,8.16
2017-12-06T16:08:47.750Z,8.25
2017-12-06T16:11:15.450Z,8.22
2017-12-06T16:13:43.176Z,8.24
2017-12-06T16:16:10.795Z,8.21
2017-12-06T16:18:38.550Z,8.20
2017-12-06T16:21:06.228Z,8.19
2017-12-06T16:23:33.978Z,8.19
2017-12-06T16:26:01.609Z,8.25
2017-12-06T16:28:29.344Z,8.22
2017-12-06T16:30:57.089Z,8.24
2017-12-06T16:33:24.857Z,8.17
2017-12-06T16:36:04.404Z,8.20
2017-12-06T16:38:32.188Z,8.20
2017-12-06T16:40:59.881Z,8.17
2017-12-06T16:43:27.680Z,8.18
2017-12-06T16:45:55.323Z,8.22
2017-12-06T16:48:23.016Z,8.22
2017-12-06T16:50:50.681Z,8.21
2017-12-06T16:53:18.511Z,8.22
2017-12-06T16:55:46.188Z,8.25
2017-12-06T16:58:13.943Z,8.23
2017-12-06T17:00:41.585Z,8.21
2017-12-06T17:03:09.797Z,8.23
2017-12-06T17:05:37.587Z,8.16
2017-12-06T17:08:05.333Z,8.14
2017-12-06T17:10:33.012Z,8.17
2017-12-06T17:13:00.761Z,8.12
2017-12-06T17:15:28.481Z,8.10
2017-12-06T17:17:56.329Z,8.11
2017-12-06T17:20:24.113Z,8.11
2017-12-06T17:22:51.868Z,8.14
2017-12-06T17:25:19.599Z,8.11
2017-12-06T17:27:47.243Z,8.09
2017-12-06T17:30:26.732Z,8.14
2017-12-06T17:32:54.450Z,8.17
2017-12-06T17:35:22.245Z,8.15
2017-12-06T17:37:49.976Z,8.15
2017-12-06T17:40:17.757Z,8.16
2017-12-06T17:42:45.385Z,8.15
2017-12-06T17:45:13.092Z,8.15
2017-12-06T17:47:40.743Z,8.15
2017-12-06T17:50:20.443Z,8.18
2017-12-06T17:52:48.260Z,8.20
2017-12-06T17:55:16.625Z,8.18
2017-12-06T17:57:44.396Z,8.18
2017-12-06T18:00:12.371Z,8.20
2017-12-06T18:02:40.089Z,8.18
2017-12-06T18:05:09.882Z,8.17
2017-12-06T18:07:37.659Z,8.25
2017-12-06T18:10:05.601Z,8.22
2017-12-06T18:12:33.494Z,8.24
2017-12-06T18:15:01.189Z,8.20
2017-12-06T18:17:28.850Z,8.14
2017-12-06T18:19:56.689Z,8.12
2017-12-06T18:22:24.393Z,8.12
2017-12-06T18:24:52.353Z,8.14
2017-12-06T18:27:20.274Z,8.13
2017-12-06T18:29:48.217Z,8.12
2017-12-06T18:32:16.054Z,8.11
2017-12-06T18:34:43.947Z,8.11
2017-12-06T18:37:11.927Z,8.12
2017-12-06T18:39:39.867Z,8.09
2017-12-06T18:42:07.826Z,8.06
2017-12-06T18:44:36.530Z,8.03
2017-12-06T18:47:04.439Z,8.03
2017-12-06T18:49:33.433Z,8.11
2017-12-06T18:52:02.013Z,8.15
2017-12-06T18:54:29.886Z,8.12
2017-12-06T18:56:57.600Z,8.10
2017-12-06T18:59:25.518Z,8.11
2017-12-06T19:01:53.275Z,8.19
2017-12-06T19:04:21.939Z,8.19
2017-12-06T19:06:49.681Z,8.18
2017-12-06T19:09:17.471Z,8.17
2017-12-06T19:11:45.225Z,8.12
2017-12-06T19:14:13.078Z,8.15
2017-12-06T19:16:40.828Z,8.14
2017-12-06T19:19:08.617Z,8.16
2017-12-06T19:21:36.435Z,8.16
2017-12-06T19:24:04.180Z,8.15
2017-12-06T19:26:32.939Z,8.13
2017-12-06T19:29:01.672Z,8.14
2017-12-06T19:31:31.948Z,8.15
2017-12-06T19:34:00.458Z,8.15
2017-12-06T19:36:30.842Z,8.18
2017-12-06T19:39:01.163Z,8.18
2017-12-06T19:41:29.111Z,8.19
2017-12-06T19:43:57.620Z,8.22
2017-12-06T19:46:31.741Z,8.19
2017-12-06T19:49:03.524Z,8.23
2017-12-06T19:51:33.952Z,8.22
2017-12-06T19:54:03.717Z,8.19
2017-12-06T19:56:33.317Z,8.18
2017-12-06T19:59:01.085Z,8.16
2017-12-06T20:01:33.401Z,8.17
2017-12-06T20:04:01.884Z,8.18
2017-12-06T20:06:32.629Z,8.16
2017-12-06T20:09:01.047Z,8.16
2017-12-06T20:11:30.742Z,8.17
2017-12-06T20:14:01.960Z,8.22
2017-12-06T20:16:30.821Z,8.20
2017-12-06T20:19:01.413Z,8.16
2017-12-06T20:21:32.143Z,8.17
2017-12-06T20:24:03.152Z,8.17
2017-12-06T20:26:31.142Z,8.17
2017-12-06T20:28:58.881Z,8.15
2017-12-06T20:31:26.760Z,8.20
2017-12-06T20:33:54.635Z,8.18
2017-12-06T20:36:23.499Z,8.19
2017-12-06T20:38:51.348Z,8.19
2017-12-06T20:41:19.317Z,8.20
2017-12-06T20:43:47.167Z,8.21
2017-12-06T20:46:15.053Z,8.22
2017-12-06T20:48:42.976Z,8.23
2017-12-06T20:51:10.921Z,8.22
2017-12-06T20:53:38.818Z,8.27
2017-12-06T20:56:07.496Z,8.29
2017-12-06T20:58:36.435Z,8.25
2017-12-06T21:01:05.205Z,8.25
2017-12-06T21:03:33.849Z,8.28
2017-12-06T21:06:01.782Z,8.23
2017-12-06T21:08:29.630Z,8.23
2017-12-06T21:10:57.994Z,8.29
2017-12-06T21:13:26.714Z,8.28
2017-12-06T21:15:54.619Z,8.25
2017-12-06T21:18:22.473Z,8.27
2017-12-06T21:20:50.375Z,8.29
2017-12-06T21:23:18.160Z,8.30
2017-12-06T21:25:46.092Z,8.29
2017-12-06T21:28:13.973Z,8.28
2017-12-06T21:30:41.824Z,8.29
2017-12-06T21:33:09.647Z,8.30
2017-12-06T21:35:37.307Z,8.29
2017-12-06T21:38:05.080Z,8.34
2017-12-06T21:40:32.788Z,8.34
2017-12-06T21:43:00.469Z,8.30
2017-12-06T21:45:28.106Z,8.33
2017-12-06T21:47:55.774Z,8.28
2017-12-06T21:50:23.399Z,8.30
2017-12-06T21:52:51.090Z,8.30
2017-12-06T21:55:18.716Z,8.31
2017-12-06T21:57:46.385Z,8.30
2017-12-06T22:00:14.015Z,8.30
2017-12-06T22:02:41.678Z,8.30
2017-12-06T22:05:09.300Z,8.30
2017-12-06T22:07:37.034Z,8.32
2017-12-06T22:10:04.734Z,8.30
2017-12-06T22:12:32.480Z,8.29
2017-12-06T22:15:00.172Z,8.32
2017-12-06T22:17:27.898Z,8.25
2017-12-06T22:19:55.540Z,8.25
2017-12-06T22:22:23.217Z,8.30
2017-12-06T22:24:50.900Z,8.27
2017-12-06T22:27:18.584Z,8.25
2017-12-06T22:29:46.270Z,8.21
2017-12-06T22:32:13.935Z,8.25
2017-12-06T22:34:41.651Z,8.26
2017-12-06T22:37:09.380Z,8.28
2017-12-06T22:39:37.004Z,8.30
2017-12-06T22:42:04.732Z,8.29
2017-12-06T22:44:32.360Z,8.30
2017-12-06T22:47:00.109Z,8.32
2017-12-06T22:49:27.834Z,8.32
2017-12-06T22:51:55.500Z,8.35
2017-12-06T22:54:23.180Z,8.31
2017-12-06T22:56:50.877Z,8.25
2017-12-06T22:59:18.563Z,8.24
2017-12-06T23:01:46.274Z,8.21
2017-12-06T23:04:13.954Z,8.24
2017-12-06T23:06:41.632Z,8.22
2017-12-06T23:09:09.371Z,8.20
2017-12-06T23:11:37.078Z,8.17
2017-12-06T23:14:04.808Z,8.13
2017-12-06T23:16:32.452Z,8.15
2017-12-06T23:19:00.127Z,8.15
2017-12-06T23:21:27.770Z,8.14
2017-12-06T23:23:55.523Z,8.11
2017-12-06T23:26:23.230Z,8.12
2017-12-06T23:28:51.007Z,8.10
2017-12-06T23:31:18.634Z,8.08
2017-12-06T23:33:46.383Z,8.04
2017-12-06T23:36:14.030Z,8.04
2017-12-06T23:38:41.707Z,8.04
2017-12-06T23:41:09.421Z,8.02
2017-12-06T23:43:37.168Z,8.01
2017-12-06T23:46:04.807Z,8.02
2017-12-06T23:48:32.532Z,8.00
2017-12-06T23:51:00.276Z,7.98
2017-12-06T23:53:28.019Z,7.95
2017-12-06T23:55:55.652Z,7.96
2017-12-06T23:58:23.392Z,7.93
